sensor_id;sensor_type;location;lat;lon;timestamp;P1;durP1;ratioP1;P2;durP2;ratioP2
4051;SDS011;2040;50.924;11.604;2023-06-24T00:01:22;19.67;;;10.90;;
4051;SDS011;2040;50.924;11.604;2023-06-24T00:03:48;19.77;;;9.27;;
4051;SDS011;2040;50.924;11.604;2023-06-24T00:06:18;14.40;;;8.47;;
4051;SDS011;2040;50.924;11.604;2023-06-24T00:08:47;13.37;;;8.40;;
4051;SDS011;2040;50.924;11.604;2023-06-24T00:11:14;14.10;;;8.87;;
4051;SDS011;2040;50.924;11.604;2023-06-24T00:13:40;20.70;;;8.80;;
4051;SDS011;2040;50.924;11.604;2023-06-24T00:16:07;12.83;;;7.23;;
4051;SDS011;2040;50.924;11.604;2023-06-24T00:18:33;10.67;;;8.27;;
4051;SDS011;2040;50.924;11.604;2023-06-24T00:20:59;13.07;;;8.13;;
4051;SDS011;2040;50.924;11.604;2023-06-24T00:23:26;26.37;;;9.00;;
4051;SDS011;2040;50.924;11.604;2023-06-24T00:25:53;14.00;;;8.57;;
4051;SDS011;2040;50.924;11.604;2023-06-24T00:28:19;11.90;;;7.47;;
4051;SDS011;2040;50.924;11.604;2023-06-24T00:30:45;14.57;;;8.33;;
4051;SDS011;2040;50.924;11.604;2023-06-24T00:33:11;10.30;;;8.00;;
4051;SDS011;2040;50.924;11.604;2023-06-24T00:35:38;14.83;;;8.40;;
4051;SDS011;2040;50.924;11.604;2023-06-24T00:38:04;10.23;;;7.13;;
4051;SDS011;2040;50.924;11.604;2023-06-24T00:40:29;15.80;;;7.87;;
4051;SDS011;2040;50.924;11.604;2023-06-24T00:42:55;12.60;;;7.57;;
4051;SDS011;2040;50.924;11.604;2023-06-24T00:45:22;17.40;;;7.27;;
4051;SDS011;2040;50.924;11.604;2023-06-24T00:47:48;12.57;;;8.03;;
4051;SDS011;2040;50.924;11.604;2023-06-24T00:50:14;21.20;;;7.63;;
4051;SDS011;2040;50.924;11.604;2023-06-24T00:52:41;12.80;;;7.70;;
4051;SDS011;2040;50.924;11.604;2023-06-24T00:55:11;17.83;;;7.80;;
4051;SDS011;2040;50.924;11.604;2023-06-24T00:57:38;12.23;;;7.80;;
4051;SDS011;2040;50.924;11.604;2023-06-24T01:00:05;36.00;;;9.13;;
4051;SDS011;2040;50.924;11.604;2023-06-24T01:02:38;70.43;;;12.67;;
4051;SDS011;2040;50.924;11.604;2023-06-24T01:05:04;126.33;;;13.03;;
4051;SDS011;2040;50.924;11.604;2023-06-24T01:07:33;29.83;;;8.70;;
4051;SDS011;2040;50.924;11.604;2023-06-24T01:10:05;13.53;;;7.27;;
4051;SDS011;2040;50.924;11.604;2023-06-24T01:12:36;14.33;;;7.27;;
4051;SDS011;2040;50.924;11.604;2023-06-24T01:15:06;26.27;;;8.90;;
4051;SDS011;2040;50.924;11.604;2023-06-24T01:17:38;32.77;;;9.00;;
4051;SDS011;2040;50.924;11.604;2023-06-24T01:28:33;49.63;;;9.50;;
4051;SDS011;2040;50.924;11.604;2023-06-24T01:31:31;30.50;;;7.43;;
4051;SDS011;2040;50.924;11.604;2023-06-24T01:34:25;77.53;;;11.53;;
4051;SDS011;2040;50.924;11.604;2023-06-24T01:39:34;129.10;;;15.33;;
4051;SDS011;2040;50.924;11.604;2023-06-24T01:42:08;152.63;;;13.10;;
4051;SDS011;2040;50.924;11.604;2023-06-24T01:44:36;73.23;;;10.30;;
4051;SDS011;2040;50.924;11.604;2023-06-24T01:47:06;129.90;;;11.73;;
4051;SDS011;2040;50.924;11.604;2023-06-24T01:49:33;43.93;;;9.90;;
4051;SDS011;2040;50.924;11.604;2023-06-24T01:52:03;18.27;;;5.80;;
4051;SDS011;2040;50.924;11.604;2023-06-24T01:54:30;133.27;;;12.67;;
4051;SDS011;2040;50.924;11.604;2023-06-24T01:56:57;193.30;;;13.07;;
4051;SDS011;2040;50.924;11.604;2023-06-24T01:59:25;102.40;;;9.90;;
4051;SDS011;2040;50.924;11.604;2023-06-24T02:01:54;46.57;;;9.53;;
4051;SDS011;2040;50.924;11.604;2023-06-24T02:04:20;84.87;;;9.37;;
4051;SDS011;2040;50.924;11.604;2023-06-24T02:06:48;70.63;;;10.00;;
4051;SDS011;2040;50.924;11.604;2023-06-24T02:09:15;125.17;;;9.83;;
4051;SDS011;2040;50.924;11.604;2023-06-24T02:11:44;63.80;;;8.20;;
4051;SDS011;2040;50.924;11.604;2023-06-24T02:14:10;7.83;;;5.17;;
4051;SDS011;2040;50.924;11.604;2023-06-24T02:16:37;9.57;;;5.70;;
4051;SDS011;2040;50.924;11.604;2023-06-24T02:19:07;64.47;;;7.10;;
4051;SDS011;2040;50.924;11.604;2023-06-24T02:21:34;42.87;;;10.13;;
4051;SDS011;2040;50.924;11.604;2023-06-24T02:24:03;17.53;;;5.50;;
4051;SDS011;2040;50.924;11.604;2023-06-24T02:26:30;51.17;;;8.40;;
4051;SDS011;2040;50.924;11.604;2023-06-24T02:28:55;40.23;;;7.00;;
4051;SDS011;2040;50.924;11.604;2023-06-24T02:31:22;24.37;;;7.10;;
4051;SDS011;2040;50.924;11.604;2023-06-24T02:33:48;19.83;;;8.73;;
4051;SDS011;2040;50.924;11.604;2023-06-24T02:36:13;22.47;;;9.30;;
4051;SDS011;2040;50.924;11.604;2023-06-24T02:38:39;23.53;;;9.97;;
4051;SDS011;2040;50.924;11.604;2023-06-24T02:41:06;15.87;;;10.10;;
4051;SDS011;2040;50.924;11.604;2023-06-24T02:43:32;17.80;;;11.10;;
4051;SDS011;2040;50.924;11.604;2023-06-24T02:45:58;13.40;;;9.80;;
4051;SDS011;2040;50.924;11.604;2023-06-24T02:48:28;20.03;;;10.13;;
4051;SDS011;2040;50.924;11.604;2023-06-24T02:50:55;19.73;;;12.00;;
4051;SDS011;2040;50.924;11.604;2023-06-24T02:53:23;18.03;;;11.70;;
4051;SDS011;2040;50.924;11.604;2023-06-24T02:55:49;18.07;;;10.77;;
4051;SDS011;2040;50.924;11.604;2023-06-24T02:58:15;17.90;;;11.10;;
4051;SDS011;2040;50.924;11.604;2023-06-24T03:00:41;17.07;;;9.40;;
4051;SDS011;2040;50.924;11.604;2023-06-24T03:03:06;14.83;;;8.90;;
4051;SDS011;2040;50.924;11.604;2023-06-24T03:05:32;19.00;;;9.30;;
4051;SDS011;2040;50.924;11.604;2023-06-24T03:07:58;12.70;;;8.40;;
4051;SDS011;2040;50.924;11.604;2023-06-24T03:10:25;12.70;;;7.70;;
4051;SDS011;2040;50.924;11.604;2023-06-24T03:12:51;12.40;;;7.93;;
4051;SDS011;2040;50.924;11.604;2023-06-24T03:15:17;12.10;;;8.13;;
4051;SDS011;2040;50.924;11.604;2023-06-24T03:17:42;14.00;;;8.47;;
4051;SDS011;2040;50.924;11.604;2023-06-24T03:20:08;22.93;;;9.13;;
4051;SDS011;2040;50.924;11.604;2023-06-24T03:22:34;14.57;;;9.13;;
4051;SDS011;2040;50.924;11.604;2023-06-24T03:25:00;19.03;;;9.17;;
4051;SDS011;2040;50.924;11.604;2023-06-24T03:27:26;20.03;;;10.00;;
4051;SDS011;2040;50.924;11.604;2023-06-24T03:29:51;21.90;;;10.50;;
4051;SDS011;2040;50.924;11.604;2023-06-24T03:32:17;22.03;;;10.03;;
4051;SDS011;2040;50.924;11.604;2023-06-24T03:34:42;16.77;;;8.97;;
4051;SDS011;2040;50.924;11.604;2023-06-24T03:37:08;15.70;;;10.10;;
4051;SDS011;2040;50.924;11.604;2023-06-24T03:39:34;16.70;;;10.67;;
4051;SDS011;2040;50.924;11.604;2023-06-24T03:41:59;21.03;;;11.50;;
4051;SDS011;2040;50.924;11.604;2023-06-24T03:44:25;18.70;;;8.67;;
4051;SDS011;2040;50.924;11.604;2023-06-24T03:46:51;19.63;;;8.67;;
4051;SDS011;2040;50.924;11.604;2023-06-24T03:49:17;15.97;;;8.20;;
4051;SDS011;2040;50.924;11.604;2023-06-24T03:51:43;15.90;;;8.57;;
4051;SDS011;2040;50.924;11.604;2023-06-24T03:54:09;13.07;;;8.20;;
4051;SDS011;2040;50.924;11.604;2023-06-24T03:56:34;11.57;;;8.13;;
4051;SDS011;2040;50.924;11.604;2023-06-24T03:59:00;18.50;;;8.60;;
4051;SDS011;2040;50.924;11.604;2023-06-24T04:01:25;19.07;;;9.50;;
4051;SDS011;2040;50.924;11.604;2023-06-24T04:03:51;15.53;;;9.07;;
4051;SDS011;2040;50.924;11.604;2023-06-24T04:06:16;16.93;;;9.30;;
4051;SDS011;2040;50.924;11.604;2023-06-24T04:08:42;16.50;;;8.60;;
4051;SDS011;2040;50.924;11.604;2023-06-24T04:11:13;16.37;;;9.20;;
4051;SDS011;2040;50.924;11.604;2023-06-24T04:13:39;15.23;;;9.80;;
4051;SDS011;2040;50.924;11.604;2023-06-24T04:16:05;13.73;;;8.43;;
4051;SDS011;2040;50.924;11.604;2023-06-24T04:18:30;13.33;;;7.83;;
4051;SDS011;2040;50.924;11.604;2023-06-24T04:20:56;12.77;;;8.40;;
4051;SDS011;2040;50.924;11.604;2023-06-24T04:23:22;12.67;;;8.67;;
4051;SDS011;2040;50.924;11.604;2023-06-24T04:25:48;15.57;;;9.33;;
4051;SDS011;2040;50.924;11.604;2023-06-24T04:28:14;17.73;;;10.23;;
4051;SDS011;2040;50.924;11.604;2023-06-24T04:30:39;14.47;;;8.90;;
4051;SDS011;2040;50.924;11.604;2023-06-24T04:33:05;21.37;;;8.63;;
4051;SDS011;2040;50.924;11.604;2023-06-24T04:35:31;26.63;;;8.10;;
4051;SDS011;2040;50.924;11.604;2023-06-24T04:37:56;117.20;;;12.63;;
4051;SDS011;2040;50.924;11.604;2023-06-24T04:40:22;271.67;;;17.27;;
4051;SDS011;2040;50.924;11.604;2023-06-24T04:42:48;39.10;;;8.43;;
4051;SDS011;2040;50.924;11.604;2023-06-24T04:45:13;84.23;;;10.87;;
4051;SDS011;2040;50.924;11.604;2023-06-24T04:47:39;13.80;;;6.70;;
4051;SDS011;2040;50.924;11.604;2023-06-24T04:50:05;90.60;;;9.20;;
4051;SDS011;2040;50.924;11.604;2023-06-24T04:52:31;74.97;;;8.30;;
4051;SDS011;2040;50.924;11.604;2023-06-24T04:54:57;29.67;;;8.20;;
4051;SDS011;2040;50.924;11.604;2023-06-24T04:57:23;72.63;;;10.33;;
4051;SDS011;2040;50.924;11.604;2023-06-24T04:59:51;130.90;;;11.10;;
4051;SDS011;2040;50.924;11.604;2023-06-24T05:02:16;102.73;;;9.67;;
4051;SDS011;2040;50.924;11.604;2023-06-24T05:04:42;41.37;;;7.23;;
4051;SDS011;2040;50.924;11.604;2023-06-24T05:07:08;137.60;;;13.77;;
4051;SDS011;2040;50.924;11.604;2023-06-24T05:09:33;94.70;;;8.70;;
4051;SDS011;2040;50.924;11.604;2023-06-24T05:12:02;52.37;;;7.27;;
4051;SDS011;2040;50.924;11.604;2023-06-24T05:14:31;52.93;;;9.43;;
4051;SDS011;2040;50.924;11.604;2023-06-24T05:16:58;53.17;;;10.70;;
4051;SDS011;2040;50.924;11.604;2023-06-24T05:19:24;119.03;;;12.90;;
4051;SDS011;2040;50.924;11.604;2023-06-24T05:21:49;164.03;;;13.20;;
4051;SDS011;2040;50.924;11.604;2023-06-24T05:24:15;214.00;;;18.97;;
4051;SDS011;2040;50.924;11.604;2023-06-24T05:26:40;180.63;;;14.37;;
4051;SDS011;2040;50.924;11.604;2023-06-24T05:29:06;55.83;;;8.60;;
4051;SDS011;2040;50.924;11.604;2023-06-24T05:31:32;16.87;;;7.47;;
4051;SDS011;2040;50.924;11.604;2023-06-24T05:33:57;14.07;;;8.50;;
4051;SDS011;2040;50.924;11.604;2023-06-24T05:36:23;15.70;;;7.93;;
4051;SDS011;2040;50.924;11.604;2023-06-24T05:38:48;22.33;;;7.30;;
4051;SDS011;2040;50.924;11.604;2023-06-24T05:41:14;22.80;;;9.50;;
4051;SDS011;2040;50.924;11.604;2023-06-24T05:43:42;16.43;;;8.10;;
4051;SDS011;2040;50.924;11.604;2023-06-24T05:46:08;10.83;;;7.93;;
4051;SDS011;2040;50.924;11.604;2023-06-24T05:48:35;14.90;;;8.77;;
4051;SDS011;2040;50.924;11.604;2023-06-24T05:51:00;164.80;;;17.63;;
4051;SDS011;2040;50.924;11.604;2023-06-24T05:53:26;124.43;;;16.10;;
4051;SDS011;2040;50.924;11.604;2023-06-24T05:55:52;97.90;;;12.37;;
4051;SDS011;2040;50.924;11.604;2023-06-24T05:58:18;50.50;;;9.93;;
4051;SDS011;2040;50.924;11.604;2023-06-24T06:00:43;75.90;;;13.00;;
4051;SDS011;2040;50.924;11.604;2023-06-24T06:03:09;64.60;;;12.83;;
4051;SDS011;2040;50.924;11.604;2023-06-24T06:05:35;13.97;;;8.90;;
4051;SDS011;2040;50.924;11.604;2023-06-24T06:08:01;13.40;;;8.10;;
4051;SDS011;2040;50.924;11.604;2023-06-24T06:10:26;12.10;;;8.50;;
4051;SDS011;2040;50.924;11.604;2023-06-24T06:12:52;21.23;;;9.77;;
4051;SDS011;2040;50.924;11.604;2023-06-24T06:15:18;14.70;;;9.60;;
4051;SDS011;2040;50.924;11.604;2023-06-24T06:17:45;18.43;;;9.47;;
4051;SDS011;2040;50.924;11.604;2023-06-24T06:20:11;12.17;;;8.73;;
4051;SDS011;2040;50.924;11.604;2023-06-24T06:22:37;12.70;;;8.83;;
4051;SDS011;2040;50.924;11.604;2023-06-24T06:25:06;15.73;;;8.87;;
4051;SDS011;2040;50.924;11.604;2023-06-24T06:27:33;15.93;;;9.17;;
4051;SDS011;2040;50.924;11.604;2023-06-24T06:29:59;16.97;;;8.90;;
4051;SDS011;2040;50.924;11.604;2023-06-24T06:32:25;16.83;;;11.00;;
4051;SDS011;2040;50.924;11.604;2023-06-24T06:34:50;14.60;;;9.90;;
4051;SDS011;2040;50.924;11.604;2023-06-24T06:37:16;16.00;;;10.60;;
4051;SDS011;2040;50.924;11.604;2023-06-24T06:39:41;14.23;;;10.50;;
4051;SDS011;2040;50.924;11.604;2023-06-24T06:42:07;16.93;;;11.50;;
4051;SDS011;2040;50.924;11.604;2023-06-24T06:44:33;17.03;;;10.73;;
4051;SDS011;2040;50.924;11.604;2023-06-24T06:46:58;16.80;;;10.93;;
4051;SDS011;2040;50.924;11.604;2023-06-24T06:49:24;17.13;;;10.90;;
4051;SDS011;2040;50.924;11.604;2023-06-24T06:51:49;18.90;;;8.70;;
4051;SDS011;2040;50.924;11.604;2023-06-24T06:54:16;16.83;;;9.93;;
4051;SDS011;2040;50.924;11.604;2023-06-24T06:56:42;15.83;;;9.47;;
4051;SDS011;2040;50.924;11.604;2023-06-24T06:59:07;14.83;;;9.70;;
4051;SDS011;2040;50.924;11.604;2023-06-24T07:01:33;14.60;;;9.40;;
4051;SDS011;2040;50.924;11.604;2023-06-24T07:03:58;20.93;;;10.17;;
4051;SDS011;2040;50.924;11.604;2023-06-24T07:06:24;17.00;;;10.93;;
4051;SDS011;2040;50.924;11.604;2023-06-24T07:08:50;19.93;;;10.23;;
4051;SDS011;2040;50.924;11.604;2023-06-24T07:11:15;14.30;;;9.87;;
4051;SDS011;2040;50.924;11.604;2023-06-24T07:13:41;21.40;;;11.77;;
4051;SDS011;2040;50.924;11.604;2023-06-24T07:16:06;14.93;;;11.23;;
4051;SDS011;2040;50.924;11.604;2023-06-24T07:18:32;22.50;;;10.77;;
4051;SDS011;2040;50.924;11.604;2023-06-24T07:20:59;16.40;;;10.37;;
4051;SDS011;2040;50.924;11.604;2023-06-24T07:23:25;25.73;;;11.00;;
4051;SDS011;2040;50.924;11.604;2023-06-24T07:25:50;14.27;;;11.20;;
4051;SDS011;2040;50.924;11.604;2023-06-24T07:28:16;16.50;;;10.93;;
4051;SDS011;2040;50.924;11.604;2023-06-24T07:30:41;21.43;;;8.93;;
4051;SDS011;2040;50.924;11.604;2023-06-24T07:33:07;22.20;;;10.80;;
4051;SDS011;2040;50.924;11.604;2023-06-24T07:35:33;16.63;;;9.27;;
4051;SDS011;2040;50.924;11.604;2023-06-24T07:37:59;17.00;;;9.87;;
4051;SDS011;2040;50.924;11.604;2023-06-24T07:40:25;16.50;;;9.90;;
4051;SDS011;2040;50.924;11.604;2023-06-24T07:42:51;16.40;;;8.93;;
4051;SDS011;2040;50.924;11.604;2023-06-24T07:45:17;12.47;;;8.60;;
4051;SDS011;2040;50.924;11.604;2023-06-24T07:47:43;13.30;;;8.70;;
4051;SDS011;2040;50.924;11.604;2023-06-24T07:50:08;13.70;;;7.40;;
4051;SDS011;2040;50.924;11.604;2023-06-24T07:52:36;11.10;;;7.77;;
4051;SDS011;2040;50.924;11.604;2023-06-24T07:55:02;11.00;;;8.27;;
4051;SDS011;2040;50.924;11.604;2023-06-24T07:57:28;13.47;;;7.13;;
4051;SDS011;2040;50.924;11.604;2023-06-24T07:59:54;9.50;;;6.80;;
4051;SDS011;2040;50.924;11.604;2023-06-24T08:02:20;16.03;;;6.80;;
4051;SDS011;2040;50.924;11.604;2023-06-24T08:04:45;10.73;;;6.17;;
4051;SDS011;2040;50.924;11.604;2023-06-24T08:07:11;6.23;;;5.33;;
4051;SDS011;2040;50.924;11.604;2023-06-24T08:09:37;6.97;;;5.03;;
4051;SDS011;2040;50.924;11.604;2023-06-24T08:12:02;7.80;;;5.23;;
4051;SDS011;2040;50.924;11.604;2023-06-24T08:14:29;9.70;;;4.33;;
4051;SDS011;2040;50.924;11.604;2023-06-24T08:16:54;9.27;;;4.43;;
4051;SDS011;2040;50.924;11.604;2023-06-24T08:19:20;8.63;;;4.57;;
4051;SDS011;2040;50.924;11.604;2023-06-24T08:21:45;8.50;;;3.97;;
4051;SDS011;2040;50.924;11.604;2023-06-24T08:24:11;8.87;;;4.60;;
4051;SDS011;2040;50.924;11.604;2023-06-24T08:26:36;5.83;;;4.07;;
4051;SDS011;2040;50.924;11.604;2023-06-24T08:29:02;9.03;;;3.60;;
4051;SDS011;2040;50.924;11.604;2023-06-24T08:31:28;8.70;;;3.77;;
4051;SDS011;2040;50.924;11.604;2023-06-24T08:33:54;4.30;;;3.50;;
4051;SDS011;2040;50.924;11.604;2023-06-24T08:36:22;4.77;;;3.60;;
4051;SDS011;2040;50.924;11.604;2023-06-24T08:38:49;9.87;;;3.37;;
4051;SDS011;2040;50.924;11.604;2023-06-24T08:41:14;6.20;;;3.00;;
4051;SDS011;2040;50.924;11.604;2023-06-24T08:43:40;6.50;;;2.57;;
4051;SDS011;2040;50.924;11.604;2023-06-24T08:46:06;3.60;;;3.20;;
4051;SDS011;2040;50.924;11.604;2023-06-24T08:48:32;4.80;;;3.57;;
4051;SDS011;2040;50.924;11.604;2023-06-24T08:51:04;4.97;;;2.97;;
4051;SDS011;2040;50.924;11.604;2023-06-24T08:53:33;2.73;;;2.03;;
4051;SDS011;2040;50.924;11.604;2023-06-24T08:56:01;5.13;;;2.63;;
4051;SDS011;2040;50.924;11.604;2023-06-24T08:58:26;4.90;;;2.53;;
4051;SDS011;2040;50.924;11.604;2023-06-24T09:00:52;3.60;;;2.90;;
4051;SDS011;2040;50.924;11.604;2023-06-24T09:03:18;3.53;;;2.83;;
4051;SDS011;2040;50.924;11.604;2023-06-24T09:05:44;6.10;;;3.07;;
4051;SDS011;2040;50.924;11.604;2023-06-24T09:08:09;4.17;;;2.67;;
4051;SDS011;2040;50.924;11.604;2023-06-24T09:10:36;2.30;;;2.10;;
4051;SDS011;2040;50.924;11.604;2023-06-24T09:13:03;2.90;;;2.30;;
4051;SDS011;2040;50.924;11.604;2023-06-24T09:15:30;3.67;;;2.40;;
4051;SDS011;2040;50.924;11.604;2023-06-24T09:17:59;6.27;;;2.73;;
4051;SDS011;2040;50.924;11.604;2023-06-24T09:20:29;5.00;;;2.17;;
4051;SDS011;2040;50.924;11.604;2023-06-24T09:23:03;3.60;;;2.30;;
4051;SDS011;2040;50.924;11.604;2023-06-24T09:25:29;8.10;;;2.27;;
4051;SDS011;2040;50.924;11.604;2023-06-24T09:28:02;4.13;;;2.30;;
4051;SDS011;2040;50.924;11.604;2023-06-24T09:30:28;4.93;;;2.60;;
4051;SDS011;2040;50.924;11.604;2023-06-24T09:32:54;4.53;;;2.20;;
4051;SDS011;2040;50.924;11.604;2023-06-24T09:35:21;2.70;;;2.30;;
4051;SDS011;2040;50.924;11.604;2023-06-24T09:37:55;2.50;;;2.23;;
4051;SDS011;2040;50.924;11.604;2023-06-24T09:40:21;5.77;;;2.90;;
4051;SDS011;2040;50.924;11.604;2023-06-24T09:42:48;6.70;;;2.00;;
4051;SDS011;2040;50.924;11.604;2023-06-24T09:45:27;11.93;;;2.97;;
4051;SDS011;2040;50.924;11.604;2023-06-24T09:47:54;5.70;;;2.30;;
4051;SDS011;2040;50.924;11.604;2023-06-24T09:50:20;3.80;;;2.37;;
4051;SDS011;2040;50.924;11.604;2023-06-24T09:52:46;3.13;;;1.93;;
4051;SDS011;2040;50.924;11.604;2023-06-24T09:55:13;2.90;;;2.23;;
4051;SDS011;2040;50.924;11.604;2023-06-24T09:57:41;14.37;;;2.60;;
4051;SDS011;2040;50.924;11.604;2023-06-24T10:00:15;6.40;;;2.93;;
4051;SDS011;2040;50.924;11.604;2023-06-24T10:02:43;3.17;;;2.40;;
4051;SDS011;2040;50.924;11.604;2023-06-24T10:05:10;2.97;;;2.27;;
4051;SDS011;2040;50.924;11.604;2023-06-24T10:07:37;3.70;;;2.43;;
4051;SDS011;2040;50.924;11.604;2023-06-24T10:10:05;2.73;;;2.03;;
4051;SDS011;2040;50.924;11.604;2023-06-24T10:12:31;3.37;;;2.70;;
4051;SDS011;2040;50.924;11.604;2023-06-24T10:14:58;4.37;;;2.67;;
4051;SDS011;2040;50.924;11.604;2023-06-24T10:17:27;4.30;;;2.40;;
4051;SDS011;2040;50.924;11.604;2023-06-24T10:19:53;5.00;;;2.67;;
4051;SDS011;2040;50.924;11.604;2023-06-24T10:22:21;3.33;;;2.23;;
4051;SDS011;2040;50.924;11.604;2023-06-24T10:24:49;2.80;;;2.10;;
4051;SDS011;2040;50.924;11.604;2023-06-24T10:27:17;6.87;;;2.10;;
4051;SDS011;2040;50.924;11.604;2023-06-24T10:29:51;2.30;;;2.10;;
4051;SDS011;2040;50.924;11.604;2023-06-24T10:32:21;2.40;;;1.90;;
4051;SDS011;2040;50.924;11.604;2023-06-24T10:34:47;6.90;;;2.27;;
4051;SDS011;2040;50.924;11.604;2023-06-24T10:37:20;3.23;;;2.50;;
4051;SDS011;2040;50.924;11.604;2023-06-24T10:39:59;5.73;;;2.83;;
4051;SDS011;2040;50.924;11.604;2023-06-24T10:42:27;2.33;;;1.80;;
4051;SDS011;2040;50.924;11.604;2023-06-24T10:47:38;3.20;;;2.33;;
4051;SDS011;2040;50.924;11.604;2023-06-24T10:50:11;3.73;;;2.50;;
4051;SDS011;2040;50.924;11.604;2023-06-24T10:52:38;4.73;;;2.50;;
4051;SDS011;2040;50.924;11.604;2023-06-24T10:55:05;3.30;;;2.50;;
4051;SDS011;2040;50.924;11.604;2023-06-24T10:57:32;5.60;;;2.57;;
4051;SDS011;2040;50.924;11.604;2023-06-24T10:59:57;4.50;;;2.00;;
4051;SDS011;2040;50.924;11.604;2023-06-24T11:02:24;4.63;;;2.60;;
4051;SDS011;2040;50.924;11.604;2023-06-24T11:04:58;2.70;;;2.43;;
4051;SDS011;2040;50.924;11.604;2023-06-24T11:07:29;6.57;;;2.43;;
4051;SDS011;2040;50.924;11.604;2023-06-24T11:10:04;4.67;;;2.77;;
4051;SDS011;2040;50.924;11.604;2023-06-24T11:12:32;5.60;;;3.00;;
4051;SDS011;2040;50.924;11.604;2023-06-24T11:15:00;4.93;;;2.47;;
4051;SDS011;2040;50.924;11.604;2023-06-24T11:17:30;4.20;;;2.37;;
4051;SDS011;2040;50.924;11.604;2023-06-24T11:20:11;2.97;;;2.30;;
4051;SDS011;2040;50.924;11.604;2023-06-24T11:22:41;3.27;;;2.40;;
4051;SDS011;2040;50.924;11.604;2023-06-24T11:25:17;10.03;;;2.27;;
4051;SDS011;2040;50.924;11.604;2023-06-24T11:27:46;2.37;;;2.10;;
4051;SDS011;2040;50.924;11.604;2023-06-24T11:30:13;2.37;;;1.80;;
4051;SDS011;2040;50.924;11.604;2023-06-24T11:32:39;4.20;;;2.43;;
4051;SDS011;2040;50.924;11.604;2023-06-24T11:35:10;3.10;;;2.47;;
4051;SDS011;2040;50.924;11.604;2023-06-24T11:37:40;5.27;;;2.67;;
4051;SDS011;2040;50.924;11.604;2023-06-24T11:40:11;3.23;;;2.23;;
4051;SDS011;2040;50.924;11.604;2023-06-24T11:42:48;3.40;;;2.60;;
4051;SDS011;2040;50.924;11.604;2023-06-24T11:45:19;5.60;;;2.60;;
4051;SDS011;2040;50.924;11.604;2023-06-24T11:47:48;7.30;;;2.73;;
4051;SDS011;2040;50.924;11.604;2023-06-24T11:50:14;3.53;;;2.07;;
4051;SDS011;2040;50.924;11.604;2023-06-24T11:52:40;4.40;;;2.40;;
4051;SDS011;2040;50.924;11.604;2023-06-24T11:57:50;3.97;;;2.10;;
4051;SDS011;2040;50.924;11.604;2023-06-24T12:00:20;5.30;;;2.27;;
4051;SDS011;2040;50.924;11.604;2023-06-24T12:02:50;7.53;;;2.80;;
4051;SDS011;2040;50.924;11.604;2023-06-24T12:05:34;10.43;;;3.07;;
4051;SDS011;2040;50.924;11.604;2023-06-24T12:08:02;4.50;;;2.07;;
4051;SDS011;2040;50.924;11.604;2023-06-24T12:10:33;9.27;;;3.27;;
4051;SDS011;2040;50.924;11.604;2023-06-24T12:13:03;5.57;;;2.70;;
4051;SDS011;2040;50.924;11.604;2023-06-24T12:15:33;9.13;;;3.50;;
4051;SDS011;2040;50.924;11.604;2023-06-24T12:18:02;3.70;;;2.60;;
4051;SDS011;2040;50.924;11.604;2023-06-24T12:20:28;6.10;;;3.70;;
4051;SDS011;2040;50.924;11.604;2023-06-24T12:22:55;4.30;;;2.70;;
4051;SDS011;2040;50.924;11.604;2023-06-24T12:25:29;4.53;;;2.40;;
4051;SDS011;2040;50.924;11.604;2023-06-24T12:27:55;8.43;;;2.60;;
4051;SDS011;2040;50.924;11.604;2023-06-24T12:30:21;7.03;;;3.20;;
4051;SDS011;2040;50.924;11.604;2023-06-24T12:32:49;3.80;;;2.03;;
4051;SDS011;2040;50.924;11.604;2023-06-24T12:35:23;2.80;;;2.47;;
4051;SDS011;2040;50.924;11.604;2023-06-24T12:37:55;4.60;;;2.67;;
4051;SDS011;2040;50.924;11.604;2023-06-24T12:40:23;5.00;;;2.50;;
4051;SDS011;2040;50.924;11.604;2023-06-24T12:42:49;5.53;;;2.60;;
4051;SDS011;2040;50.924;11.604;2023-06-24T12:45:14;3.87;;;2.70;;
4051;SDS011;2040;50.924;11.604;2023-06-24T12:47:40;3.53;;;2.40;;
4051;SDS011;2040;50.924;11.604;2023-06-24T12:50:06;3.13;;;2.77;;
4051;SDS011;2040;50.924;11.604;2023-06-24T12:52:33;10.83;;;2.67;;
4051;SDS011;2040;50.924;11.604;2023-06-24T12:54:59;5.50;;;2.80;;
4051;SDS011;2040;50.924;11.604;2023-06-24T12:57:27;6.33;;;2.60;;
4051;SDS011;2040;50.924;11.604;2023-06-24T12:59:56;7.43;;;3.00;;
4051;SDS011;2040;50.924;11.604;2023-06-24T13:02:24;3.27;;;2.50;;
4051;SDS011;2040;50.924;11.604;2023-06-24T13:04:50;6.97;;;2.60;;
4051;SDS011;2040;50.924;11.604;2023-06-24T13:07:16;4.60;;;3.20;;
4051;SDS011;2040;50.924;11.604;2023-06-24T13:09:47;5.97;;;2.80;;
4051;SDS011;2040;50.924;11.604;2023-06-24T13:12:13;3.20;;;2.57;;
4051;SDS011;2040;50.924;11.604;2023-06-24T13:14:41;3.40;;;2.30;;
4051;SDS011;2040;50.924;11.604;2023-06-24T13:17:12;3.77;;;2.57;;
4051;SDS011;2040;50.924;11.604;2023-06-24T13:19:38;3.07;;;2.60;;
4051;SDS011;2040;50.924;11.604;2023-06-24T13:22:04;4.70;;;2.90;;
4051;SDS011;2040;50.924;11.604;2023-06-24T13:24:29;3.40;;;2.67;;
4051;SDS011;2040;50.924;11.604;2023-06-24T13:26:55;5.40;;;2.57;;
4051;SDS011;2040;50.924;11.604;2023-06-24T13:29:21;5.43;;;2.50;;
4051;SDS011;2040;50.924;11.604;2023-06-24T13:31:46;5.63;;;2.57;;
4051;SDS011;2040;50.924;11.604;2023-06-24T13:34:12;4.27;;;2.23;;
4051;SDS011;2040;50.924;11.604;2023-06-24T13:36:38;5.70;;;2.73;;
4051;SDS011;2040;50.924;11.604;2023-06-24T13:39:05;3.57;;;2.50;;
4051;SDS011;2040;50.924;11.604;2023-06-24T13:41:31;2.10;;;1.90;;
4051;SDS011;2040;50.924;11.604;2023-06-24T13:44:01;8.30;;;2.00;;
4051;SDS011;2040;50.924;11.604;2023-06-24T13:46:28;2.80;;;2.00;;
4051;SDS011;2040;50.924;11.604;2023-06-24T13:48:55;4.10;;;2.10;;
4051;SDS011;2040;50.924;11.604;2023-06-24T13:51:22;5.83;;;2.17;;
4051;SDS011;2040;50.924;11.604;2023-06-24T13:53:48;2.67;;;2.00;;
4051;SDS011;2040;50.924;11.604;2023-06-24T13:56:19;2.77;;;2.23;;
4051;SDS011;2040;50.924;11.604;2023-06-24T13:58:45;4.10;;;2.07;;
4051;SDS011;2040;50.924;11.604;2023-06-24T14:01:11;4.83;;;2.70;;
4051;SDS011;2040;50.924;11.604;2023-06-24T14:03:40;2.87;;;2.20;;
4051;SDS011;2040;50.924;11.604;2023-06-24T14:06:09;3.17;;;2.30;;
4051;SDS011;2040;50.924;11.604;2023-06-24T14:08:35;3.00;;;2.40;;
4051;SDS011;2040;50.924;11.604;2023-06-24T14:11:07;4.10;;;2.50;;
4051;SDS011;2040;50.924;11.604;2023-06-24T14:13:33;2.30;;;2.10;;
4051;SDS011;2040;50.924;11.604;2023-06-24T14:16:01;3.23;;;2.23;;
4051;SDS011;2040;50.924;11.604;2023-06-24T14:18:28;5.33;;;2.17;;
4051;SDS011;2040;50.924;11.604;2023-06-24T14:20:57;2.90;;;2.00;;
4051;SDS011;2040;50.924;11.604;2023-06-24T14:23:27;2.03;;;1.67;;
4051;SDS011;2040;50.924;11.604;2023-06-24T14:25:53;7.13;;;2.20;;
4051;SDS011;2040;50.924;11.604;2023-06-24T14:28:19;4.10;;;2.27;;
4051;SDS011;2040;50.924;11.604;2023-06-24T14:30:45;6.80;;;2.80;;
4051;SDS011;2040;50.924;11.604;2023-06-24T14:33:11;3.53;;;1.83;;
4051;SDS011;2040;50.924;11.604;2023-06-24T14:35:37;4.50;;;2.30;;
4051;SDS011;2040;50.924;11.604;2023-06-24T14:38:03;4.47;;;2.60;;
4051;SDS011;2040;50.924;11.604;2023-06-24T14:40:28;3.17;;;2.50;;
4051;SDS011;2040;50.924;11.604;2023-06-24T14:42:54;4.60;;;2.60;;
4051;SDS011;2040;50.924;11.604;2023-06-24T14:45:20;3.03;;;2.13;;
4051;SDS011;2040;50.924;11.604;2023-06-24T14:47:45;3.37;;;2.93;;
4051;SDS011;2040;50.924;11.604;2023-06-24T14:50:11;4.47;;;2.30;;
4051;SDS011;2040;50.924;11.604;2023-06-24T14:52:36;3.40;;;2.67;;
4051;SDS011;2040;50.924;11.604;2023-06-24T14:55:02;9.33;;;2.70;;
4051;SDS011;2040;50.924;11.604;2023-06-24T14:57:28;7.30;;;2.90;;
4051;SDS011;2040;50.924;11.604;2023-06-24T14:59:53;3.60;;;2.63;;
4051;SDS011;2040;50.924;11.604;2023-06-24T15:02:19;3.00;;;2.70;;
4051;SDS011;2040;50.924;11.604;2023-06-24T15:04:45;4.53;;;2.50;;
4051;SDS011;2040;50.924;11.604;2023-06-24T15:07:10;7.73;;;2.43;;